Time;durP1;ratioP1;P1;durP2;ratioP2;P2;SDS_P1;SDS_P2;PMS_P1;PMS_P2;Temp;Humidity;BMP_temperature;BMP_pressure;BME280_temperature;BME280_humidity;BME280_pressure;Samples;Min_cycle;Max_cycle;Signal;HPM_P1;HPM_P2
2021/12/18 00:02:15;;;;;;;26.90;16.60;;;4.30;99.90;;;;;;4896299;29;20308;-78
2021/12/18 00:04:40;;;;;;;23.67;15.23;;;4.30;99.90;;;;;;4895754;29;20228;-76
2021/12/18 00:07:07;;;;;;;27.50;16.23;;;4.30;99.90;;;;;;4884622;29;20227;-77
2021/12/18 00:09:33;;;;;;;27.87;16.27;;;4.30;99.90;;;;;;4894701;29;20212;-77
2021/12/18 00:12:00;;;;;;;29.17;16.00;;;4.40;99.90;;;;;;4895937;29;20475;-77
2021/12/18 00:14:26;;;;;;;25.77;15.20;;;4.40;99.90;;;;;;4895930;29;20460;-78
2021/12/18 00:16:52;;;;;;;23.30;16.00;;;4.40;99.90;;;;;;4885730;29;20526;-76
2021/12/18 00:19:24;;;;;;;22.70;15.53;;;4.30;99.90;;;;;;4897550;29;20453;-76
2021/12/18 00:21:49;;;;;;;28.03;16.73;;;4.40;99.90;;;;;;4904081;29;20231;-77
2021/12/18 00:24:15;;;;;;;26.27;16.20;;;4.40;99.90;;;;;;4897786;29;21007;-77
2021/12/18 00:26:41;;;;;;;28.40;17.57;;;4.30;99.90;;;;;;4895974;29;20244;-77
2021/12/18 00:29:06;;;;;;;27.10;16.60;;;4.30;99.90;;;;;;4894509;29;20221;-77
2021/12/18 00:31:32;;;;;;;26.30;15.60;;;4.30;99.90;;;;;;4896353;29;20294;-77
2021/12/18 00:33:57;;;;;;;29.03;17.03;;;4.30;99.90;;;;;;4895863;29;20689;-76
2021/12/18 00:36:23;;;;;;;27.60;16.93;;;4.20;99.90;;;;;;4896767;29;20617;-76
2021/12/18 00:38:49;;;;;;;28.63;15.97;;;4.20;99.90;;;;;;4896426;29;20187;-77
2021/12/18 00:41:28;;;;;;;26.63;16.97;;;4.20;99.90;;;;;;4896105;29;20207;-77
2021/12/18 00:44:03;;;;;;;28.90;17.73;;;4.20;99.90;;;;;;4895999;29;20237;-78
2021/12/18 00:46:38;;;;;;;28.40;17.93;;;4.20;99.90;;;;;;4896263;29;20463;-78
2021/12/18 00:49:05;;;;;;;30.53;17.40;;;4.20;99.90;;;;;;4895738;29;20390;-77
2021/12/18 00:51:31;;;;;;;30.60;18.97;;;4.20;99.90;;;;;;4896037;29;20406;-76
2021/12/18 00:53:57;;;;;;;23.50;15.10;;;4.20;99.90;;;;;;4895302;29;20431;-77
2021/12/18 00:56:23;;;;;;;27.83;18.10;;;4.20;99.90;;;;;;4895606;29;20184;-77
2021/12/18 00:58:50;;;;;;;30.63;20.23;;;4.20;99.90;;;;;;4896002;29;20184;-78
2021/12/18 05:30:44;;;;;;;20.67;12.23;;;2.50;99.90;;;;;;5917004;23;20360;-76
2021/12/18 05:33:11;;;;;;;22.87;12.37;;;2.50;99.90;;;;;;4894087;29;21042;-77
2021/12/18 05:35:38;;;;;;;19.43;10.67;;;2.50;99.90;;;;;;4899209;29;20390;-78
2021/12/18 05:38:06;;;;;;;24.53;13.17;;;2.50;99.90;;;;;;4899710;29;20426;-78
2021/12/18 05:40:34;;;;;;;24.00;13.43;;;2.50;99.90;;;;;;4898942;29;20378;-78
2021/12/18 05:42:59;;;;;;;26.17;12.07;;;2.50;99.90;;;;;;4880947;29;20468;-78
2021/12/18 05:45:25;;;;;;;20.33;11.17;;;2.50;99.90;;;;;;4872457;29;21370;-78
2021/12/18 05:47:51;;;;;;;20.73;10.83;;;2.50;99.90;;;;;;4880045;29;20185;-76
2021/12/18 05:50:19;;;;;;;20.40;11.00;;;2.50;99.90;;;;;;4887979;29;20177;-75
2021/12/18 05:52:46;;;;;;;19.83;11.27;;;2.50;99.90;;;;;;4881121;29;20268;-74
2021/12/18 05:55:14;;;;;;;20.60;11.43;;;2.50;99.90;;;;;;4879716;29;20462;-74
2021/12/18 05:57:40;;;;;;;15.30;9.67;;;2.50;99.90;;;;;;4880172;29;20769;-75
2021/12/18 06:00:08;;;;;;;17.00;10.10;;;2.50;99.90;;;;;;4879971;29;20510;-76
2021/12/18 06:02:33;;;;;;;20.00;10.40;;;2.50;99.90;;;;;;4879567;29;20235;-77
2021/12/18 06:04:59;;;;;;;18.20;10.07;;;2.60;99.90;;;;;;4879857;29;21153;-76
2021/12/18 06:07:33;;;;;;;20.23;10.07;;;2.60;99.90;;;;;;4878723;29;20185;-75
2021/12/18 06:09:59;;;;;;;17.77;9.00;;;2.60;99.90;;;;;;4880502;29;20540;-74
2021/12/18 06:12:25;;;;;;;15.47;8.70;;;2.50;99.90;;;;;;4879224;29;20438;-75
2021/12/18 06:14:51;;;;;;;17.30;9.60;;;2.60;99.90;;;;;;4879907;29;20429;-75
2021/12/18 06:17:17;;;;;;;15.90;9.00;;;2.60;99.90;;;;;;4879731;29;21041;-75
2021/12/18 06:19:42;;;;;;;19.57;10.40;;;2.60;99.90;;;;;;4879936;29;20185;-74
2021/12/18 06:22:08;;;;;;;18.13;9.90;;;2.60;99.90;;;;;;4877881;29;20257;-75
2021/12/18 06:24:34;;;;;;;17.03;8.80;;;2.60;99.90;;;;;;4879923;29;20659;-75
2021/12/18 06:26:59;;;;;;;16.80;9.40;;;2.60;99.90;;;;;;4879764;29;20182;-75
2021/12/18 06:29:25;;;;;;;17.77;11.53;;;2.60;99.90;;;;;;4879562;29;20180;-75
2021/12/18 06:31:51;;;;;;;19.40;10.80;;;2.50;99.90;;;;;;4879449;29;20240;-76
2021/12/18 06:34:16;;;;;;;24.00;11.33;;;2.40;99.90;;;;;;4879677;29;20188;-76
2021/12/18 06:36:42;;;;;;;22.57;12.53;;;2.50;99.90;;;;;;4880004;29;20210;-77
2021/12/18 06:39:08;;;;;;;19.80;11.57;;;2.50;99.90;;;;;;4879455;29;20669;-77
2021/12/18 06:41:33;;;;;;;22.57;11.93;;;2.50;99.90;;;;;;4879493;29;20197;-77
2021/12/18 06:43:59;;;;;;;26.20;12.93;;;2.50;99.90;;;;;;4879395;29;20202;-76
2021/12/18 06:46:24;;;;;;;24.17;12.70;;;2.60;99.90;;;;;;4879333;29;20236;-76
2021/12/18 06:48:50;;;;;;;21.03;10.87;;;2.50;99.90;;;;;;4879415;29;20721;-74
2021/12/18 06:51:17;;;;;;;16.30;9.93;;;2.60;99.90;;;;;;4879348;29;20211;-76
2021/12/18 06:53:42;;;;;;;19.37;9.40;;;2.60;99.90;;;;;;4879594;29;20180;-76
2021/12/18 06:56:08;;;;;;;18.67;10.03;;;2.60;99.90;;;;;;4880039;29;20715;-76
2021/12/18 06:58:33;;;;;;;15.90;9.70;;;2.60;99.90;;;;;;4880034;29;20187;-76
2021/12/18 07:00:59;;;;;;;17.87;11.50;;;2.60;99.90;;;;;;4879756;29;20294;-79
2021/12/18 07:03:25;;;;;;;13.20;8.33;;;2.60;99.90;;;;;;4879054;29;20197;-76
2021/12/18 07:05:50;;;;;;;13.17;9.13;;;2.60;99.90;;;;;;4878809;29;20215;-76
2021/12/18 07:08:16;;;;;;;19.37;9.50;;;2.60;99.90;;;;;;4879030;29;20426;-76
2021/12/18 07:10:42;;;;;;;19.70;9.17;;;2.60;99.90;;;;;;4879007;29;20188;-77
2021/12/18 07:13:07;;;;;;;17.20;8.97;;;2.50;99.90;;;;;;4878424;29;20388;-77
2021/12/18 07:15:33;;;;;;;13.60;7.93;;;2.70;99.90;;;;;;4878639;29;20270;-77
2021/12/18 07:17:59;;;;;;;14.97;9.07;;;2.70;99.90;;;;;;4877446;29;20659;-77
2021/12/18 07:20:27;;;;;;;18.20;8.73;;;2.70;99.90;;;;;;4878255;29;20432;-77
2021/12/18 07:22:54;;;;;;;18.47;9.53;;;2.70;99.90;;;;;;4878425;29;20428;-77
2021/12/18 07:25:19;;;;;;;17.50;8.70;;;2.70;99.90;;;;;;4878086;29;20463;-77
2021/12/18 07:27:45;;;;;;;22.60;9.60;;;2.70;99.90;;;;;;4878297;29;20422;-77
2021/12/18 07:30:12;;;;;;;16.57;8.30;;;2.70;99.90;;;;;;4878026;29;20236;-77
2021/12/18 07:32:38;;;;;;;13.23;7.73;;;2.70;99.90;;;;;;4878265;29;20287;-76
2021/12/18 07:35:05;;;;;;;14.63;7.87;;;2.70;99.90;;;;;;4877980;29;20431;-78
2021/12/18 07:37:30;;;;;;;17.03;8.17;;;2.70;99.90;;;;;;4878079;29;20436;-78
2021/12/18 07:39:56;;;;;;;15.33;8.47;;;2.80;99.90;;;;;;4878102;29;20422;-77
2021/12/18 07:42:22;;;;;;;15.23;8.90;;;2.70;99.90;;;;;;4878184;29;20224;-77
2021/12/18 07:44:47;;;;;;;16.60;8.93;;;2.70;99.90;;;;;;4877987;29;20212;-78
2021/12/18 07:47:13;;;;;;;16.50;8.53;;;2.70;99.90;;;;;;4894111;29;20195;-77
2021/12/18 07:49:39;;;;;;;17.87;9.73;;;2.70;99.90;;;;;;4880512;29;20189;-78
2021/12/18 07:52:05;;;;;;;17.50;8.73;;;2.80;99.90;;;;;;4876680;29;20583;-77
2021/12/18 07:54:31;;;;;;;18.53;9.27;;;2.80;99.90;;;;;;4877985;29;20886;-78
2021/12/18 07:56:57;;;;;;;23.50;9.67;;;2.90;99.90;;;;;;4876761;29;20518;-77
2021/12/18 07:59:22;;;;;;;22.47;9.67;;;2.90;99.90;;;;;;4877826;29;20575;-77
2021/12/18 08:01:48;;;;;;;16.17;8.63;;;2.90;99.90;;;;;;4877815;29;20577;-77
2021/12/18 08:04:13;;;;;;;19.07;9.70;;;2.90;99.90;;;;;;4876268;29;20215;-78
2021/12/18 08:06:39;;;;;;;20.00;10.17;;;2.80;99.90;;;;;;4877880;29;20644;-77
2021/12/18 08:09:05;;;;;;;17.10;10.70;;;2.90;99.90;;;;;;4877857;29;20182;-78
2021/12/18 08:11:30;;;;;;;19.63;9.93;;;2.90;99.90;;;;;;4877667;29;20463;-77
2021/12/18 08:13:56;;;;;;;18.63;10.90;;;3.00;99.90;;;;;;4877989;29;20184;-77
2021/12/18 08:16:21;;;;;;;13.27;8.50;;;3.00;99.90;;;;;;4878533;29;20212;-77
2021/12/18 08:18:47;;;;;;;14.17;9.00;;;3.00;99.90;;;;;;4881895;29;20545;-77
2021/12/18 08:21:14;;;;;;;20.57;9.03;;;3.00;99.90;;;;;;4881289;29;20198;-77
2021/12/18 08:23:40;;;;;;;15.20;8.70;;;3.00;99.90;;;;;;4881280;29;20702;-78
2021/12/18 08:26:07;;;;;;;15.33;8.73;;;3.00;99.90;;;;;;4881328;29;20486;-77
2021/12/18 08:28:32;;;;;;;19.00;8.93;;;3.10;99.90;;;;;;4881412;29;20186;-77
2021/12/18 08:30:58;;;;;;;16.50;9.63;;;3.10;99.90;;;;;;4881095;29;20894;-77
2021/12/18 08:33:24;;;;;;;19.10;9.47;;;3.20;99.90;;;;;;4881419;29;20182;-76
2021/12/18 08:35:50;;;;;;;17.00;9.90;;;3.20;99.90;;;;;;4881552;29;20636;-77
2021/12/18 08:38:15;;;;;;;16.67;10.07;;;3.20;99.90;;;;;;4881156;29;20434;-77
2021/12/18 08:40:42;;;;;;;20.70;10.23;;;3.20;99.90;;;;;;4879957;29;20232;-77
2021/12/18 08:43:08;;;;;;;15.17;8.60;;;3.20;99.90;;;;;;4881189;29;20260;-77
2021/12/18 08:45:34;;;;;;;16.53;9.40;;;3.20;99.90;;;;;;4881248;29;20543;-78
2021/12/18 08:47:59;;;;;;;18.50;8.97;;;3.30;99.90;;;;;;4881473;29;20866;-79
2021/12/18 08:50:25;;;;;;;17.93;8.43;;;3.30;99.90;;;;;;4881124;29;20231;-78
2021/12/18 08:52:51;;;;;;;19.67;9.03;;;3.30;99.90;;;;;;4879958;29;20252;-77
2021/12/18 08:55:19;;;;;;;17.37;9.53;;;3.30;99.90;;;;;;4881062;29;20182;-77
2021/12/18 08:57:46;;;;;;;18.33;8.30;;;3.40;99.90;;;;;;4881231;29;20418;-78
2021/12/18 09:00:14;;;;;;;15.27;9.17;;;3.30;99.90;;;;;;4880921;29;20402;-76
2021/12/18 09:02:40;;;;;;;14.93;8.60;;;3.40;99.90;;;;;;4880823;29;20917;-77
2021/12/18 09:05:08;;;;;;;14.63;8.87;;;3.40;99.90;;;;;;4880601;29;20562;-77
2021/12/18 09:07:33;;;;;;;14.70;8.70;;;3.40;99.90;;;;;;4880632;29;20402;-78
2021/12/18 09:09:59;;;;;;;18.07;9.43;;;3.50;99.90;;;;;;4880483;29;20401;-78
2021/12/18 09:12:25;;;;;;;18.77;10.00;;;3.50;99.90;;;;;;4880445;29;20224;-77
2021/12/18 09:14:50;;;;;;;19.53;10.23;;;3.50;99.90;;;;;;4880689;29;20809;-77
2021/12/18 09:17:16;;;;;;;17.33;10.20;;;3.50;99.90;;;;;;4880450;29;20423;-77
2021/12/18 09:19:42;;;;;;;16.70;9.30;;;3.60;99.90;;;;;;4880583;29;20254;-78
2021/12/18 09:22:09;;;;;;;15.73;8.87;;;3.60;99.90;;;;;;4880343;29;20700;-77
2021/12/18 09:24:34;;;;;;;19.10;9.63;;;3.60;99.90;;;;;;4880301;29;20207;-77
2021/12/18 09:27:00;;;;;;;16.30;9.07;;;3.60;99.90;;;;;;4880251;29;20428;-77
2021/12/18 09:29:26;;;;;;;15.47;8.83;;;3.60;99.90;;;;;;4878939;29;20191;-77
2021/12/18 09:31:51;;;;;;;16.70;9.93;;;3.50;99.90;;;;;;4880106;29;20279;-77
2021/12/18 09:34:17;;;;;;;17.73;10.13;;;3.60;99.90;;;;;;4879042;29;20183;-78
2021/12/18 09:36:43;;;;;;;17.47;10.17;;;3.60;99.90;;;;;;4880325;29;20198;-78
2021/12/18 09:39:09;;;;;;;17.20;9.23;;;3.60;99.90;;;;;;4880029;29;20215;-78
2021/12/18 09:41:35;;;;;;;16.97;8.87;;;3.60;99.90;;;;;;4880550;29;20628;-78
2021/12/18 09:44:01;;;;;;;14.63;8.03;;;3.50;99.90;;;;;;4893938;29;20452;-79
2021/12/18 09:46:30;;;;;;;16.53;9.07;;;3.50;99.90;;;;;;4884188;29;20435;-78
2021/12/18 09:48:57;;;;;;;15.40;9.00;;;3.60;99.90;;;;;;4880451;29;20184;-77
2021/12/18 09:51:27;;;;;;;18.17;10.13;;;3.50;99.90;;;;;;4879777;29;20523;-77
2021/12/18 09:53:54;;;;;;;22.87;12.60;;;3.70;99.90;;;;;;4880062;29;20767;-78
2021/12/18 09:56:21;;;;;;;21.17;11.20;;;3.70;99.90;;;;;;4878611;29;20436;-75
2021/12/18 09:58:47;;;;;;;23.80;11.13;;;3.80;99.90;;;;;;4879708;29;20428;-77
2021/12/18 10:01:13;;;;;;;17.73;10.30;;;3.80;99.90;;;;;;4879397;29;20543;-78
2021/12/18 10:03:48;;;;;;;19.67;11.17;;;3.90;99.90;;;;;;4879775;29;20505;-77
2021/12/18 10:06:42;;;;;;;24.37;11.90;;;3.80;99.90;;;;;;4880790;29;20442;-77
2021/12/18 10:09:11;;;;;;;21.83;10.00;;;3.70;99.90;;;;;;4878447;29;20766;-77
2021/12/18 10:11:54;;;;;;;15.60;9.50;;;3.70;99.90;;;;;;4879280;29;20412;-78
2021/12/18 10:14:42;;;;;;;20.70;10.10;;;3.70;99.90;;;;;;4894451;29;21032;-77
2021/12/18 10:17:25;;;;;;;16.27;8.77;;;3.70;99.90;;;;;;4878872;29;20428;-77
2021/12/18 10:19:54;;;;;;;17.00;9.93;;;3.80;99.90;;;;;;4879141;29;20406;-77
2021/12/18 10:22:20;;;;;;;21.00;10.40;;;3.90;99.90;;;;;;4879496;29;20461;-77
2021/12/18 10:25:01;;;;;;;20.10;11.17;;;3.80;99.90;;;;;;4879410;29;20480;-77
2021/12/18 10:27:27;;;;;;;19.40;10.50;;;3.80;99.90;;;;;;4879142;29;20432;-76
2021/12/18 10:30:07;;;;;;;15.40;10.17;;;3.80;99.90;;;;;;4879540;29;20390;-77
2021/12/18 10:32:32;;;;;;;21.00;11.40;;;3.90;99.90;;;;;;4878915;29;20834;-77
2021/12/18 10:34:59;;;;;;;17.20;9.97;;;4.00;99.90;;;;;;4879138;29;20432;-77
2021/12/18 10:37:31;;;;;;;18.07;10.70;;;4.10;99.90;;;;;;4893265;29;20270;-78
2021/12/18 10:40:07;;;;;;;19.97;10.53;;;3.90;99.90;;;;;;4878544;29;20893;-78
2021/12/18 10:42:49;;;;;;;21.63;10.73;;;3.90;99.90;;;;;;4878837;29;20445;-78
2021/12/18 10:45:22;;;;;;;25.13;11.27;;;4.00;99.90;;;;;;4878810;29;20450;-78
2021/12/18 10:47:53;;;;;;;20.03;11.10;;;4.00;99.90;;;;;;4878866;29;20476;-77
2021/12/18 10:50:32;;;;;;;21.17;10.33;;;3.90;99.90;;;;;;4878876;29;20914;-78
2021/12/18 10:53:04;;;;;;;22.20;11.13;;;3.90;99.90;;;;;;4877026;29;21191;-77
2021/12/18 10:55:33;;;;;;;20.73;11.53;;;3.90;99.90;;;;;;4868463;29;20403;-78
2021/12/18 10:57:59;;;;;;;21.07;11.20;;;4.10;99.90;;;;;;4877831;29;20428;-78
2021/12/18 11:01:04;;;;;;;18.70;10.70;;;4.10;99.90;;;;;;4877313;29;20899;-77
2021/12/18 11:03:48;;;;;;;19.10;10.40;;;4.00;99.90;;;;;;4873216;29;20434;-77
2021/12/18 11:06:18;;;;;;;18.47;10.33;;;4.00;99.90;;;;;;4877783;29;20460;-77
2021/12/18 11:08:52;;;;;;;15.77;9.40;;;3.90;99.90;;;;;;4878555;29;20427;-77
2021/12/18 11:13:58;;;;;;;27.07;12.97;;;4.00;99.90;;;;;;4873313;29;20430;-77
2021/12/18 11:16:25;;;;;;;19.20;11.27;;;4.00;99.90;;;;;;4876579;29;22259;-78
2021/12/18 11:18:53;;;;;;;23.70;11.57;;;4.10;99.90;;;;;;4876355;29;20206;-76
2021/12/18 11:21:19;;;;;;;19.93;11.30;;;4.00;99.90;;;;;;4875578;29;20459;-77
2021/12/18 11:23:55;;;;;;;20.60;11.30;;;4.00;99.90;;;;;;4876877;29;20433;-77
2021/12/18 11:26:23;;;;;;;20.60;11.27;;;4.10;99.90;;;;;;4877727;29;20228;-77
2021/12/18 11:28:51;;;;;;;20.57;11.67;;;4.10;99.90;;;;;;4877177;29;20490;-77
2021/12/18 11:31:18;;;;;;;19.37;10.80;;;4.10;99.90;;;;;;4876897;29;20512;-76
2021/12/18 11:33:44;;;;;;;21.60;11.73;;;4.10;99.90;;;;;;4878436;29;20429;-79
2021/12/18 11:36:10;;;;;;;17.87;10.60;;;4.10;99.90;;;;;;4878019;29;20832;-78
2021/12/18 11:38:40;;;;;;;16.57;9.33;;;4.10;99.90;;;;;;4876984;29;20241;-76
2021/12/18 11:41:06;;;;;;;16.70;9.37;;;4.10;99.90;;;;;;4889646;29;20444;-77
2021/12/18 11:43:38;;;;;;;18.00;9.93;;;4.00;99.90;;;;;;4885027;29;20424;-75
2021/12/18 11:46:24;;;;;;;17.03;9.93;;;4.10;99.90;;;;;;4878385;29;20532;-77
2021/12/18 11:48:54;;;;;;;14.93;8.43;;;4.10;99.90;;;;;;4877926;29;20431;-77
2021/12/18 11:51:20;;;;;;;17.60;9.67;;;4.10;99.90;;;;;;4876951;29;20502;-77
2021/12/18 11:53:45;;;;;;;20.57;10.73;;;4.10;99.90;;;;;;4877862;29;20507;-76
2021/12/18 11:56:11;;;;;;;24.93;10.17;;;4.10;99.90;;;;;;4877766;29;20189;-78
2021/12/18 11:58:43;;;;;;;26.17;10.30;;;4.20;99.90;;;;;;4877810;29;20682;-75
2021/12/18 12:01:16;;;;;;;16.40;9.87;;;4.20;99.90;;;;;;4877651;29;20252;-77
2021/12/18 12:03:52;;;;;;;18.90;10.50;;;4.20;99.90;;;;;;4877409;29;20456;-77
2021/12/18 12:06:31;;;;;;;16.90;10.73;;;4.20;99.90;;;;;;4877491;29;20806;-77
2021/12/18 12:09:29;;;;;;;23.60;10.70;;;4.20;99.90;;;;;;4877778;29;20408;-77
2021/12/18 12:12:06;;;;;;;16.60;9.60;;;4.10;99.90;;;;;;4877418;29;20435;-76
2021/12/18 12:14:33;;;;;;;15.17;9.60;;;4.00;99.90;;;;;;4877391;29;20903;-76
2021/12/18 12:17:02;;;;;;;17.40;9.27;;;4.00;99.90;;;;;;4877325;29;20386;-75
2021/12/18 12:19:33;;;;;;;15.63;9.83;;;4.00;99.90;;;;;;4875994;29;20416;-77
2021/12/18 12:22:00;;;;;;;17.73;9.63;;;4.10;99.90;;;;;;4876821;29;20489;-76
2021/12/18 12:24:29;;;;;;;17.30;8.77;;;4.10;99.90;;;;;;4876899;29;20517;-76
2021/12/18 12:27:33;;;;;;;16.53;8.60;;;4.10;99.90;;;;;;4877386;29;20399;-77
2021/12/18 12:30:03;;;;;;;16.63;9.40;;;4.10;99.90;;;;;;4877126;29;20415;-76
2021/12/18 12:32:30;;;;;;;16.93;9.17;;;4.20;99.90;;;;;;4877169;29;20421;-76
2021/12/18 12:35:03;;;;;;;14.70;8.40;;;4.30;99.90;;;;;;4877735;29;20398;-77
2021/12/18 12:37:46;;;;;;;15.73;8.43;;;4.30;99.90;;;;;;4877478;29;20793;-78
2021/12/18 12:40:20;;;;;;;13.93;8.17;;;4.30;99.90;;;;;;4877842;29;20403;-77
2021/12/18 12:43:13;;;;;;;16.60;8.90;;;4.30;99.90;;;;;;4877569;29;20432;-77
2021/12/18 12:45:41;;;;;;;16.13;9.40;;;4.20;99.90;;;;;;4877527;29;20444;-78
2021/12/18 12:48:07;;;;;;;12.67;7.67;;;4.10;99.90;;;;;;4877756;29;20417;-78
2021/12/18 12:50:33;;;;;;;16.53;9.83;;;4.30;99.90;;;;;;4877327;29;20472;-77
2021/12/18 12:53:02;;;;;;;13.93;7.90;;;4.40;99.90;;;;;;4877246;29;20391;-78
2021/12/18 12:55:40;;;;;;;15.23;7.70;;;4.50;99.90;;;;;;4877525;29;20424;-78
2021/12/18 12:58:17;;;;;;;15.53;7.60;;;4.60;99.90;;;;;;4877572;29;20486;-78
2021/12/18 13:00:45;;;;;;;13.60;7.83;;;4.60;99.90;;;;;;4877055;29;20446;-78
2021/12/18 13:03:14;;;;;;;11.80;7.83;;;4.60;99.90;;;;;;4878870;29;20480;-78
2021/12/18 13:05:57;;;;;;;15.33;9.70;;;4.60;99.90;;;;;;4877199;29;20871;-77
2021/12/18 13:08:24;;;;;;;13.90;7.90;;;4.60;99.90;;;;;;4876821;29;20894;-79
2021/12/18 13:10:53;;;;;;;13.57;8.33;;;4.60;99.90;;;;;;4875460;29;20968;-78
2021/12/18 13:13:22;;;;;;;16.80;9.27;;;4.80;99.90;;;;;;4877697;29;20438;-78
2021/12/18 13:16:19;;;;;;;14.70;8.37;;;4.90;99.90;;;;;;4878586;29;20422;-77
2021/12/18 13:18:51;;;;;;;15.40;8.53;;;5.10;99.90;;;;;;4876979;29;20419;-79
2021/12/18 13:21:21;;;;;;;15.83;8.77;;;5.20;99.90;;;;;;4876698;29;20457;-76
2021/12/18 13:24:08;;;;;;;15.60;9.57;;;5.20;99.90;;;;;;4874964;29;20554;-75
2021/12/18 13:26:38;;;;;;;16.50;9.80;;;5.20;99.90;;;;;;4877138;29;20495;-76
2021/12/18 13:29:18;;;;;;;16.30;9.27;;;5.20;99.90;;;;;;4876890;29;20455;-76
2021/12/18 13:31:49;;;;;;;14.43;8.70;;;5.20;99.90;;;;;;4874880;29;20470;-76
2021/12/18 13:34:23;;;;;;;14.43;9.00;;;5.20;99.90;;;;;;4875722;29;20440;-77
2021/12/18 13:37:03;;;;;;;13.07;9.77;;;5.20;99.90;;;;;;4876162;29;20437;-76
2021/12/18 13:39:39;;;;;;;17.83;10.67;;;5.20;99.90;;;;;;4894653;29;20434;-77
2021/12/18 13:42:08;;;;;;;19.47;9.63;;;5.10;99.90;;;;;;4877957;29;20453;-79
2021/12/18 13:44:53;;;;;;;17.40;11.07;;;5.10;99.90;;;;;;4877788;29;21081;-77
2021/12/18 13:47:18;;;;;;;14.33;9.10;;;5.00;99.90;;;;;;4876008;29;20528;-77
2021/12/18 13:49:45;;;;;;;18.67;10.50;;;5.00;99.90;;;;;;4877203;29;20978;-77
2021/12/18 13:52:11;;;;;;;16.70;10.40;;;4.90;99.90;;;;;;4876527;29;20205;-76
2021/12/18 13:54:38;;;;;;;14.87;10.27;;;5.00;99.90;;;;;;4876961;29;20503;-77
2021/12/18 13:57:04;;;;;;;16.03;9.37;;;5.00;99.90;;;;;;4875775;29;20235;-78
2021/12/18 13:59:31;;;;;;;17.30;10.80;;;5.00;99.90;;;;;;4877257;29;20505;-78
2021/12/18 14:02:03;;;;;;;15.90;9.50;;;4.90;99.90;;;;;;4876320;29;20460;-77
2021/12/18 14:04:29;;;;;;;18.67;11.00;;;4.80;99.90;;;;;;4876165;29;20477;-77
2021/12/18 14:06:55;;;;;;;21.50;10.77;;;4.70;99.90;;;;;;4876720;29;20427;-74
2021/12/18 14:09:24;;;;;;;16.70;10.43;;;4.60;99.90;;;;;;4875922;29;20228;-75
2021/12/18 14:12:22;;;;;;;15.87;10.90;;;4.50;99.90;;;;;;4874454;29;21022;-75
2021/12/18 14:14:50;;;;;;;20.07;10.23;;;4.40;99.90;;;;;;4875826;29;20422;-74
2021/12/18 14:17:23;;;;;;;20.03;11.37;;;4.40;99.90;;;;;;4878883;29;20422;-74
2021/12/18 14:19:49;;;;;;;19.23;10.60;;;4.30;99.90;;;;;;4878214;29;20452;-75
2021/12/18 14:22:23;;;;;;;14.37;10.87;;;4.30;99.90;;;;;;4877923;29;20423;-75
2021/12/18 14:25:00;;;;;;;20.53;10.83;;;4.30;99.90;;;;;;4877604;29;20536;-74
2021/12/18 14:27:41;;;;;;;18.40;9.57;;;4.30;99.90;;;;;;4878703;29;20394;-75
2021/12/18 14:30:21;;;;;;;19.53;11.60;;;4.30;99.90;;;;;;4879067;29;20420;-73
2021/12/18 14:32:49;;;;;;;17.33;10.50;;;4.30;99.90;;;;;;4880470;29;20457;-72
2021/12/18 14:35:15;;;;;;;19.33;11.53;;;4.20;99.90;;;;;;4879275;29;20938;-75
2021/12/18 14:37:58;;;;;;;18.10;10.87;;;4.30;99.90;;;;;;4879268;29;20802;-74
2021/12/18 14:40:27;;;;;;;14.60;9.57;;;4.30;99.90;;;;;;4878848;29;20476;-74
2021/12/18 14:42:55;;;;;;;15.97;9.90;;;4.30;99.90;;;;;;4878949;29;20448;-74
2021/12/18 14:45:28;;;;;;;20.80;11.13;;;4.20;99.90;;;;;;4878951;29;20464;-74
2021/12/18 14:47:55;;;;;;;16.90;10.37;;;4.20;99.90;;;;;;4877804;29;20449;-74
2021/12/18 14:50:29;;;;;;;16.73;9.07;;;4.10;99.90;;;;;;4878678;29;20433;-75
2021/12/18 14:53:05;;;;;;;14.67;10.30;;;4.10;99.90;;;;;;4878576;29;20448;-74
2021/12/18 14:55:42;;;;;;;19.20;11.43;;;4.10;99.90;;;;;;4878668;29;20496;-74
2021/12/18 14:58:21;;;;;;;20.53;10.70;;;4.00;99.90;;;;;;4878717;29;20989;-74
2021/12/18 15:01:08;;;;;;;18.10;10.87;;;4.00;99.90;;;;;;4878548;29;20406;-73
2021/12/18 15:03:41;;;;;;;18.37;11.57;;;3.90;99.90;;;;;;4878256;29;20442;-74
2021/12/18 15:06:20;;;;;;;21.63;11.50;;;3.90;99.90;;;;;;4873852;29;20834;-73
2021/12/18 15:08:48;;;;;;;18.10;11.60;;;3.90;99.90;;;;;;4878431;29;20795;-74
2021/12/18 15:11:25;;;;;;;19.17;10.53;;;3.90;99.90;;;;;;4877942;29;20452;-74
2021/12/18 15:14:03;;;;;;;17.63;11.43;;;3.90;99.90;;;;;;4873066;29;20549;-75
2021/12/18 15:16:43;;;;;;;14.13;10.07;;;3.90;99.90;;;;;;4874440;29;20250;-73
2021/12/18 15:19:18;;;;;;;29.40;13.90;;;4.00;99.90;;;;;;4862527;29;20996;-73
2021/12/18 15:21:47;;;;;;;21.13;13.02;;;3.90;99.90;;;;;;4872925;29;20824;-74
2021/12/18 15:24:13;;;;;;;35.17;17.73;;;3.90;99.90;;;;;;4873738;29;20234;-71
2021/12/18 15:26:40;;;;;;;23.63;14.20;;;3.90;99.90;;;;;;4873871;29;20498;-73
2021/12/18 15:29:09;;;;;;;22.97;13.20;;;3.90;99.90;;;;;;4874288;29;20537;-73
2021/12/18 15:31:35;;;;;;;18.40;13.03;;;3.90;99.90;;;;;;4873831;29;20483;-73
2021/12/18 15:34:01;;;;;;;21.30;12.90;;;3.90;99.90;;;;;;4874721;29;20462;-74
2021/12/18 15:36:27;;;;;;;20.07;12.57;;;3.90;99.90;;;;;;4884494;29;20450;-73
2021/12/18 15:38:53;;;;;;;23.33;13.53;;;3.90;99.90;;;;;;4876974;29;20444;-73
2021/12/18 15:41:23;;;;;;;18.43;12.47;;;3.90;99.90;;;;;;4873654;29;20219;-73
2021/12/18 15:43:49;;;;;;;26.60;14.33;;;3.90;99.90;;;;;;4873704;29;20436;-73
2021/12/18 15:46:15;;;;;;;22.90;12.20;;;3.90;99.90;;;;;;4872901;29;21012;-74
2021/12/18 15:48:44;;;;;;;25.10;12.87;;;4.00;99.90;;;;;;4874247;29;20465;-74
2021/12/18 15:51:11;;;;;;;28.47;13.77;;;4.00;99.90;;;;;;4872671;29;20846;-74
2021/12/18 15:53:37;;;;;;;21.27;14.60;;;4.00;99.90;;;;;;4874075;29;20453;-75
2021/12/18 15:56:03;;;;;;;24.73;15.33;;;4.00;99.90;;;;;;4874689;29;20435;-76
2021/12/18 15:58:29;;;;;;;24.07;14.67;;;3.90;99.90;;;;;;4872997;29;20547;-77
2021/12/18 16:00:55;;;;;;;23.33;13.90;;;3.90;99.90;;;;;;4874101;29;20500;-76
2021/12/18 16:03:20;;;;;;;27.40;14.40;;;3.80;99.90;;;;;;4873828;29;20527;-78
2021/12/18 16:05:48;;;;;;;30.20;16.10;;;3.90;99.90;;;;;;4874424;29;20219;-78
2021/12/18 16:08:13;;;;;;;27.50;15.30;;;3.80;99.90;;;;;;4876015;29;20217;-77
2021/12/18 16:10:40;;;;;;;28.30;15.13;;;3.70;99.90;;;;;;4875656;29;20430;-77
2021/12/18 16:13:07;;;;;;;26.70;15.07;;;3.70;99.90;;;;;;4864560;29;20928;-77
2021/12/18 16:15:33;;;;;;;32.50;15.97;;;3.80;99.90;;;;;;4877383;29;20437;-76
2021/12/18 16:17:59;;;;;;;28.40;16.37;;;3.70;99.90;;;;;;4877182;29;20874;-77
2021/12/18 16:20:26;;;;;;;28.80;16.23;;;3.70;99.90;;;;;;4878144;29;20556;-77
2021/12/18 16:22:54;;;;;;;30.53;16.80;;;3.70;99.90;;;;;;4875297;29;20473;-76
2021/12/18 16:25:20;;;;;;;33.10;16.50;;;3.80;99.90;;;;;;4877142;29;20466;-77
2021/12/18 16:27:45;;;;;;;26.70;16.60;;;3.80;99.90;;;;;;4877323;29;21006;-77
2021/12/18 16:30:12;;;;;;;25.80;16.13;;;3.70;99.90;;;;;;4877490;29;20209;-77
2021/12/18 16:32:39;;;;;;;34.37;19.73;;;3.80;99.90;;;;;;4877335;29;20227;-77
2021/12/18 16:35:07;;;;;;;34.27;18.03;;;3.80;99.90;;;;;;4865249;29;20975;-76
2021/12/18 16:37:33;;;;;;;27.33;16.10;;;3.70;99.90;;;;;;4861264;29;20566;-76
2021/12/18 16:40:00;;;;;;;29.57;17.50;;;3.70;99.90;;;;;;4880731;29;20451;-76
2021/12/18 16:42:27;;;;;;;28.70;16.70;;;3.80;99.90;;;;;;4880504;29;20656;-76
2021/12/18 16:44:53;;;;;;;30.67;16.47;;;3.80;99.90;;;;;;4873933;29;20469;-76
2021/12/18 16:47:18;;;;;;;28.07;18.50;;;3.80;99.90;;;;;;4876198;29;20464;-75
2021/12/18 16:49:50;;;;;;;29.63;15.83;;;3.80;99.90;;;;;;4880927;29;20705;-76
2021/12/18 16:52:16;;;;;;;28.20;15.70;;;3.80;99.90;;;;;;4880021;29;20219;-76
2021/12/18 16:54:42;;;;;;;22.23;14.20;;;3.90;99.90;;;;;;4880405;29;20686;-77
2021/12/18 16:57:07;;;;;;;24.83;14.63;;;3.90;99.90;;;;;;4869054;29;20497;-77
2021/12/18 16:59:33;;;;;;;29.80;16.20;;;3.90;99.90;;;;;;4880269;29;20221;-76
2021/12/18 17:01:58;;;;;;;31.67;16.60;;;3.80;99.90;;;;;;4880218;29;20413;-76
2021/12/18 17:04:25;;;;;;;30.50;17.47;;;3.80;99.90;;;;;;4879307;29;20221;-74
2021/12/18 17:06:52;;;;;;;28.13;16.33;;;3.90;99.90;;;;;;4869962;29;20273;-76
2021/12/18 17:09:18;;;;;;;26.50;16.07;;;3.80;99.90;;;;;;4876813;29;20522;-76
2021/12/18 17:11:44;;;;;;;28.37;16.10;;;3.80;99.90;;;;;;4878723;29;20485;-76
2021/12/18 17:14:09;;;;;;;28.40;16.20;;;3.90;99.90;;;;;;4879044;29;20455;-76
2021/12/18 17:16:35;;;;;;;23.97;16.03;;;3.90;99.90;;;;;;4878108;29;20643;-77
2021/12/18 17:19:00;;;;;;;32.57;16.63;;;3.90;99.90;;;;;;4869458;29;20701;-73
2021/12/18 17:21:26;;;;;;;25.97;16.10;;;3.90;99.90;;;;;;4880948;29;20200;-74
2021/12/18 17:23:51;;;;;;;29.30;16.37;;;4.00;99.90;;;;;;4881055;29;20212;-74